createdAt,value
2022-10-05T00:00:06.596Z,98281.06
2022-10-05T00:02:34.505Z,98279.22
2022-10-05T00:05:02.048Z,98278.41
2022-10-05T00:07:30.385Z,98275.94
2022-10-05T00:09:59.823Z,98266.09
2022-10-05T00:12:30.062Z,98267.34
2022-10-05T00:15:01.052Z,98263.66
2022-10-05T00:17:30.541Z,98258.91
2022-10-05T00:19:57.947Z,98256.84
2022-10-05T00:22:32.017Z,98255.44
2022-10-05T00:25:02.138Z,98247.88
2022-10-05T00:27:36.822Z,98252.31
2022-10-05T00:30:19.147Z,98251.13
2022-10-05T00:32:47.242Z,98256.69
2022-10-05T00:35:16.826Z,98249.53
2022-10-05T00:37:44.755Z,98250.13
2022-10-05T00:40:24.196Z,98253.19
2022-10-05T00:43:10.499Z,98251.94
2022-10-05T00:46:24.113Z,98252.94
2022-10-05T00:49:22.345Z,98255.22
2022-10-05T00:52:22.095Z,98250.75
2022-10-05T00:55:11.115Z,98244.63
2022-10-05T00:58:16.865Z,98246.31
2022-10-05T01:00:53.167Z,98238.34
2022-10-05T01:03:51.095Z,98245.78
2022-10-05T01:06:24.463Z,98248.00
2022-10-05T01:09:19.783Z,98242.88
2022-10-05T01:12:01.141Z,98241.69
2022-10-05T01:14:40.157Z,98248.50
2022-10-05T01:17:24.275Z,98257.13
2022-10-05T01:20:24.241Z,98255.69
2022-10-05T01:23:27.095Z,98256.50
2022-10-05T01:26:03.766Z,98252.03
2022-10-05T01:29:12.956Z,98245.66
2022-10-05T01:32:02.740Z,98244.41
2022-10-05T01:34:35.798Z,98240.94
2022-10-05T01:37:23.964Z,98242.16
2022-10-05T01:39:59.446Z,98233.38
2022-10-05T01:42:36.774Z,98237.09
2022-10-05T01:45:21.174Z,98234.22
2022-10-05T01:48:04.409Z,98234.66
2022-10-05T01:50:53.334Z,98224.03
2022-10-05T01:53:38.693Z,98224.69
2022-10-05T01:56:24.497Z,98218.53
2022-10-05T01:58:55.000Z,98204.63
2022-10-05T02:02:07.807Z,98210.00
2022-10-05T02:05:00.811Z,98206.94
2022-10-05T02:07:31.105Z,98211.44
2022-10-05T02:10:12.293Z,98222.69
2022-10-05T02:12:41.219Z,98214.88
2022-10-05T02:15:19.752Z,98209.72
2022-10-05T02:17:54.842Z,98204.44
2022-10-05T02:20:27.899Z,98203.63
2022-10-05T02:23:00.694Z,98194.44
2022-10-05T02:25:33.473Z,98192.59
2022-10-05T02:28:30.027Z,98200.56
2022-10-05T02:31:07.978Z,98208.56
2022-10-05T02:33:36.243Z,98217.97
2022-10-05T02:36:29.842Z,98223.06
2022-10-05T02:39:07.474Z,98216.31
2022-10-05T02:41:58.564Z,98203.25
2022-10-05T02:44:55.344Z,98204.88
2022-10-05T02:47:29.867Z,98209.59
2022-10-05T02:50:03.501Z,98215.38
2022-10-05T02:52:53.263Z,98220.28
2022-10-05T02:55:34.095Z,98223.38
2022-10-05T02:58:13.789Z,98217.47
2022-10-05T03:00:48.190Z,98230.34
2022-10-05T03:03:27.834Z,98237.28
2022-10-05T03:06:01.011Z,98220.69
2022-10-05T03:08:52.950Z,98222.56
2022-10-05T03:11:52.773Z,98221.16
2022-10-05T03:14:37.899Z,98210.75
2022-10-05T03:17:15.302Z,98200.28
2022-10-05T03:20:10.813Z,98197.59
2022-10-05T03:23:07.714Z,98199.44
2022-10-05T03:25:45.463Z,98196.00
2022-10-05T03:28:36.177Z,98191.13
2022-10-05T03:31:25.949Z,98188.63
2022-10-05T03:34:00.822Z,98185.31
2022-10-05T03:36:49.822Z,98184.09
2022-10-05T03:39:22.130Z,98177.94
2022-10-05T03:42:03.502Z,98173.81
2022-10-05T03:44:45.053Z,98180.75
2022-10-05T03:47:40.003Z,98176.47
2022-10-05T03:50:25.640Z,98181.19
2022-10-05T03:53:07.002Z,98183.69
2022-10-05T03:55:37.501Z,98182.66
2022-10-05T03:58:20.598Z,98181.47
2022-10-05T04:00:53.980Z,98184.50
2022-10-05T04:03:24.829Z,98181.63
2022-10-05T04:06:01.143Z,98182.84
2022-10-05T04:09:14.472Z,98186.09
2022-10-05T04:12:02.357Z,98185.88
2022-10-05T04:14:37.164Z,98186.28
2022-10-05T04:17:17.843Z,98183.19
2022-10-05T04:20:22.608Z,98188.06
2022-10-05T04:23:00.580Z,98189.88
2022-10-05T04:25:39.782Z,98181.88
2022-10-05T04:28:12.343Z,98183.75
2022-10-05T04:30:43.672Z,98180.25
2022-10-05T04:33:13.852Z,98178.84
2022-10-05T04:36:18.401Z,98186.78
2022-10-05T04:38:59.701Z,98181.50
2022-10-05T04:42:04.912Z,98178.09
2022-10-05T04:45:00.332Z,98170.97
2022-10-05T04:47:36.771Z,98177.94
2022-10-05T04:50:13.153Z,98173.19
2022-10-05T04:53:34.832Z,98171.81
2022-10-05T04:56:16.248Z,98176.34
2022-10-05T04:58:54.281Z,98185.97
2022-10-05T05:01:31.121Z,98191.31
2022-10-05T05:04:39.189Z,98199.09
2022-10-05T05:07:44.682Z,98210.81
2022-10-05T05:10:49.898Z,98199.03
2022-10-05T05:13:39.552Z,98217.50
2022-10-05T05:16:37.958Z,98219.16
2022-10-05T05:19:41.751Z,98212.66
2022-10-05T05:22:34.412Z,98214.47
2022-10-05T05:25:32.737Z,98221.78
2022-10-05T05:28:32.558Z,98215.41
2022-10-05T05:31:26.025Z,98220.31
2022-10-05T05:34:10.544Z,98233.00
2022-10-05T05:36:46.114Z,98231.34
2022-10-05T05:39:36.522Z,98237.66
2022-10-05T05:42:11.231Z,98240.72
2022-10-05T05:44:48.119Z,98242.72
2022-10-05T05:47:38.002Z,98238.59
2022-10-05T05:50:25.771Z,98244.13
2022-10-05T05:53:05.897Z,98238.47
2022-10-05T05:55:40.191Z,98234.25
2022-10-05T05:58:17.553Z,98234.56
2022-10-05T06:00:48.850Z,98238.22
2022-10-05T06:03:30.507Z,98236.13
2022-10-05T06:06:04.326Z,98235.25
2022-10-05T06:08:51.487Z,98241.00
2022-10-05T06:11:40.067Z,98237.50
2022-10-05T06:14:24.251Z,98242.56
2022-10-05T06:17:01.271Z,98242.88
2022-10-05T06:19:33.007Z,98243.13
2022-10-05T06:22:35.781Z,98246.19
2022-10-05T06:25:13.562Z,98241.25
2022-10-05T06:28:08.458Z,98251.28
2022-10-05T06:30:51.352Z,98243.13
2022-10-05T06:33:34.181Z,98234.38
2022-10-05T06:36:16.301Z,98230.72
2022-10-05T06:39:22.596Z,98235.38
2022-10-05T06:42:18.070Z,98230.44
2022-10-05T06:45:54.629Z,98225.28
2022-10-05T06:48:46.690Z,98234.66
2022-10-05T06:51:38.501Z,98218.88
2022-10-05T06:54:41.529Z,98220.00
2022-10-05T06:57:42.680Z,98208.06
2022-10-05T07:00:27.559Z,98210.25
2022-10-05T07:03:13.356Z,98204.81
2022-10-05T07:05:57.849Z,98198.28
2022-10-05T07:08:34.337Z,98189.25
2022-10-05T07:11:34.200Z,98187.53
2022-10-05T07:14:05.560Z,98189.81
2022-10-05T07:16:49.443Z,98182.41
2022-10-05T07:19:24.905Z,98180.84
2022-10-05T07:21:55.616Z,98195.81
2022-10-05T07:24:34.849Z,98201.16
2022-10-05T07:27:06.538Z,98208.03
2022-10-05T07:30:07.955Z,98215.06
2022-10-05T07:32:55.546Z,98197.44
2022-10-05T07:35:50.486Z,98209.25
2022-10-05T07:38:25.155Z,98196.81
2022-10-05T07:40:59.550Z,98192.63
2022-10-05T07:44:02.592Z,98193.19
2022-10-05T07:46:46.898Z,98198.13
2022-10-05T07:49:42.670Z,98204.13
2022-10-05T07:52:41.618Z,98208.19
2022-10-05T07:55:23.288Z,98194.75
2022-10-05T07:58:08.645Z,98193.06
2022-10-05T08:00:56.160Z,98186.16
2022-10-05T08:03:36.225Z,98186.53
2022-10-05T08:06:05.925Z,98186.91
2022-10-05T08:08:42.905Z,98180.78
2022-10-05T08:11:23.089Z,98177.59
2022-10-05T08:14:06.370Z,98180.03
2022-10-05T08:16:38.626Z,98173.34
2022-10-05T08:19:14.489Z,98171.19
2022-10-05T08:21:47.962Z,98169.00
2022-10-05T08:24:54.110Z,98178.22
2022-10-05T08:28:03.605Z,98172.53
2022-10-05T08:30:35.860Z,98171.19
2022-10-05T08:33:14.885Z,98176.28
2022-10-05T08:35:45.054Z,98171.91
2022-10-05T08:38:33.774Z,98167.84
2022-10-05T08:41:21.229Z,98161.91
2022-10-05T08:44:07.187Z,98150.50
2022-10-05T08:46:56.531Z,98149.00
2022-10-05T08:50:01.826Z,98147.56
2022-10-05T08:52:36.625Z,98151.03
2022-10-05T08:55:10.267Z,98151.28
2022-10-05T08:57:55.378Z,98149.66
2022-10-05T09:00:24.418Z,98147.00
2022-10-05T09:03:25.828Z,98145.00
2022-10-05T09:06:05.125Z,98139.59
2022-10-05T09:08:44.864Z,98142.38
2022-10-05T09:11:35.458Z,98136.16
2022-10-05T09:15:01.480Z,98133.47
2022-10-05T09:17:59.724Z,98122.72
2022-10-05T09:20:38.918Z,98125.91
2022-10-05T09:23:14.977Z,98126.44
2022-10-05T09:25:52.536Z,98119.22
2022-10-05T09:28:23.045Z,98118.09
2022-10-05T09:30:58.050Z,98112.63
2022-10-05T09:33:53.930Z,98114.94
2022-10-05T09:36:27.540Z,98107.97
2022-10-05T09:39:13.307Z,98115.25
2022-10-05T09:41:55.998Z,98110.34
2022-10-05T09:44:29.654Z,98116.91
2022-10-05T09:47:41.528Z,98110.41
2022-10-05T09:50:32.718Z,98113.09
2022-10-05T09:53:21.514Z,98112.28
2022-10-05T09:56:09.478Z,98102.41
2022-10-05T09:59:07.514Z,98109.38
2022-10-05T10:01:41.176Z,98100.94
2022-10-05T10:04:24.846Z,98106.75
2022-10-05T10:07:10.623Z,98104.34
2022-10-05T10:09:50.058Z,98111.22
2022-10-05T10:12:23.437Z,98113.25
2022-10-05T10:15:01.876Z,98112.19
2022-10-05T10:17:47.307Z,98103.63
2022-10-05T10:20:35.616Z,98103.34
2022-10-05T10:23:21.693Z,98103.03
2022-10-05T10:26:11.918Z,98103.59
2022-10-05T10:29:08.507Z,98104.06
2022-10-05T10:32:02.062Z,98101.31
2022-10-05T10:35:07.360Z,98101.00
2022-10-05T10:37:52.906Z,98097.88
2022-10-05T10:40:35.073Z,98090.84
2022-10-05T10:43:40.129Z,98090.09
2022-10-05T10:46:35.353Z,98092.47
2022-10-05T10:49:15.807Z,98094.00
2022-10-05T10:52:02.185Z,98098.06
2022-10-05T10:54:49.147Z,98102.13
2022-10-05T10:57:50.547Z,98104.94
2022-10-05T11:00:33.264Z,98102.28
2022-10-05T11:03:21.875Z,98103.94
2022-10-05T11:10:03.283Z,98105.81
2022-10-05T11:12:43.212Z,98096.63
2022-10-05T11:15:43.400Z,98104.19
2022-10-05T11:18:18.249Z,98096.13
2022-10-05T11:21:23.217Z,98098.00
2022-10-05T11:24:38.948Z,98096.63
2022-10-05T11:30:31.308Z,98094.25
2022-10-05T11:33:11.425Z,98085.94
2022-10-05T11:35:41.886Z,98089.66
2022-10-05T11:38:30.821Z,98085.34
2022-10-05T11:41:07.233Z,98089.69
2022-10-05T11:44:12.953Z,98089.38
2022-10-05T11:47:08.885Z,98085.78
2022-10-05T11:49:54.671Z,98087.38
2022-10-05T11:52:42.470Z,98084.63
2022-10-05T11:55:49.853Z,98083.56
2022-10-05T11:58:26.345Z,98075.75
2022-10-05T12:01:17.177Z,98073.91
2022-10-05T12:03:59.645Z,98078.44
2022-10-05T12:06:54.626Z,98079.28
2022-10-05T12:09:40.498Z,98077.16
2022-10-05T12:12:26.914Z,98083.59
2022-10-05T12:15:04.622Z,98081.72
2022-10-05T12:17:41.203Z,98076.97
2022-10-05T12:20:21.008Z,98082.84
2022-10-05T12:23:00.584Z,98087.84
2022-10-05T12:26:01.551Z,98080.28
2022-10-05T12:28:49.944Z,98079.47
2022-10-05T12:31:20.503Z,98070.84
2022-10-05T12:34:09.072Z,98067.56
2022-10-05T12:37:08.290Z,98068.28
2022-10-05T12:39:48.740Z,98066.03
2022-10-05T12:42:30.042Z,98060.72
2022-10-05T12:45:00.486Z,98058.16
2022-10-05T12:47:56.000Z,98064.53
2022-10-05T12:50:49.341Z,98058.84
2022-10-05T12:53:54.312Z,98064.69
2022-10-05T12:56:21.904Z,98059.75
2022-10-05T12:58:59.441Z,98061.84
2022-10-05T13:01:47.772Z,98057.69
2022-10-05T13:04:22.007Z,98054.53
2022-10-05T13:07:17.181Z,98060.75
2022-10-05T13:10:03.256Z,98050.31
2022-10-05T13:12:54.095Z,98059.47
2022-10-05T13:15:28.870Z,98056.28
2022-10-05T13:18:14.080Z,98053.56
2022-10-05T13:20:52.011Z,98052.47
2022-10-05T13:23:36.361Z,98045.72
2022-10-05T13:26:08.091Z,98052.78
2022-10-05T13:29:09.750Z,98050.16
2022-10-05T13:31:55.640Z,98045.31
2022-10-05T13:34:52.601Z,98054.03
2022-10-05T13:38:16.802Z,98038.09
2022-10-05T13:40:47.812Z,98033.78
2022-10-05T13:43:39.650Z,98038.38
2022-10-05T13:46:13.617Z,98040.00
2022-10-05T13:48:54.211Z,98037.84
2022-10-05T13:51:28.000Z,98044.34
2022-10-05T13:54:14.490Z,98040.03
2022-10-05T13:56:47.699Z,98037.88
2022-10-05T13:59:36.581Z,98035.19
2022-10-05T14:02:12.083Z,98038.16
2022-10-05T14:05:14.223Z,98038.72
2022-10-05T14:08:15.540Z,98040.88
2022-10-05T14:10:46.348Z,98038.44
2022-10-05T14:13:34.099Z,98037.34
2022-10-05T14:16:13.802Z,98030.06
2022-10-05T14:19:10.490Z,98034.09
2022-10-05T14:21:58.696Z,98045.69
2022-10-05T14:24:43.765Z,98043.81
2022-10-05T14:27:36.570Z,98034.91
2022-10-05T14:30:13.110Z,98040.59
2022-10-05T14:32:51.579Z,98036.81
2022-10-05T14:35:24.105Z,98048.13
2022-10-05T14:37:58.653Z,98037.88
2022-10-05T14:40:33.260Z,98039.47
2022-10-05T14:43:21.116Z,98036.47
2022-10-05T14:45:57.805Z,98039.94
2022-10-05T14:48:30.150Z,98037.81
2022-10-05T14:51:03.460Z,98041.81
2022-10-05T14:53:38.789Z,98033.22
2022-10-05T14:56:08.955Z,98038.59
2022-10-05T14:59:11.359Z,98048.03
2022-10-05T15:01:51.434Z,98050.09
2022-10-05T15:04:37.088Z,98037.38
2022-10-05T15:07:11.331Z,98042.75
2022-10-05T15:10:01.739Z,98048.88
2022-10-05T15:12:38.149Z,98039.19
2022-10-05T15:15:25.528Z,98043.50
2022-10-05T15:18:01.669Z,98049.38
2022-10-05T15:20:47.398Z,98044.00
2022-10-05T15:23:24.927Z,98041.00
2022-10-05T15:25:56.820Z,98050.34
2022-10-05T15:28:48.467Z,98051.91
2022-10-05T15:31:30.160Z,98053.84
2022-10-05T15:34:08.094Z,98049.78
2022-10-05T15:37:01.889Z,98053.47
2022-10-05T15:39:40.580Z,98050.78
2022-10-05T15:42:15.377Z,98046.22
2022-10-05T15:45:05.490Z,98041.09
2022-10-05T15:47:50.061Z,98047.00
2022-10-05T15:50:22.080Z,98041.56
2022-10-05T15:53:20.049Z,98042.09
2022-10-05T15:56:11.518Z,98043.94
2022-10-05T15:58:53.145Z,98037.75
2022-10-05T16:01:44.221Z,98041.44
2022-10-05T16:04:30.339Z,98034.34
2022-10-05T16:07:21.058Z,98032.41
2022-10-05T16:10:02.458Z,98030.78
2022-10-05T16:12:38.857Z,98036.69
2022-10-05T16:15:26.401Z,98039.59
2022-10-05T16:17:59.547Z,98038.97
2022-10-05T16:20:50.308Z,98036.03
2022-10-05T16:23:44.647Z,98035.38
2022-10-05T16:26:32.799Z,98032.66
2022-10-05T16:29:10.549Z,98039.59
2022-10-05T16:31:44.154Z,98042.00
2022-10-05T16:34:33.863Z,98045.69
2022-10-05T16:37:23.768Z,98035.13
2022-10-05T16:39:56.926Z,98036.78
2022-10-05T16:42:30.757Z,98033.00
2022-10-05T16:45:11.867Z,98037.72
2022-10-05T16:48:00.873Z,98038.00
2022-10-05T16:51:07.684Z,98034.97
2022-10-05T16:53:47.464Z,98041.66
2022-10-05T16:56:27.506Z,98046.41
2022-10-05T16:59:04.486Z,98044.47
2022-10-05T17:01:44.752Z,98045.28
2022-10-05T17:04:31.624Z,98051.47
2022-10-05T17:07:24.336Z,98056.03
2022-10-05T17:10:01.123Z,98051.47
2022-10-05T17:12:41.016Z,98050.06
2022-10-05T17:15:33.085Z,98040.94
2022-10-05T17:18:20.508Z,98052.22
2022-10-05T17:21:02.686Z,98054.06
2022-10-05T17:23:45.757Z,98052.16
2022-10-05T17:26:33.306Z,98055.66
2022-10-05T17:29:09.566Z,98058.16
2022-10-05T17:32:11.417Z,98055.25
2022-10-05T17:35:03.042Z,98049.34
2022-10-05T17:37:37.473Z,98041.03
2022-10-05T17:41:18.696Z,98044.22
2022-10-05T17:44:13.713Z,98045.88
2022-10-05T17:46:47.631Z,98032.59
2022-10-05T17:49:23.604Z,98036.94
2022-10-05T17:52:09.503Z,98033.69
2022-10-05T17:55:09.052Z,98034.47
2022-10-05T17:57:37.317Z,98026.75
2022-10-05T18:00:09.557Z,98022.50
2022-10-05T18:02:39.946Z,98027.56
2022-10-05T18:05:12.898Z,98026.22
2022-10-05T18:07:42.185Z,98024.88
2022-10-05T18:10:12.308Z,98031.06
2022-10-05T18:12:45.136Z,98033.97
2022-10-05T18:15:25.016Z,98031.00
2022-10-05T18:17:59.690Z,98034.25
2022-10-05T18:20:32.068Z,98043.09
2022-10-05T18:23:09.813Z,98039.34
2022-10-05T18:26:13.772Z,98045.03
2022-10-05T18:28:53.075Z,98043.47
2022-10-05T18:31:52.835Z,98042.09
2022-10-05T18:35:01.958Z,98051.91
2022-10-05T18:37:54.717Z,98050.38
2022-10-05T18:40:34.598Z,98057.88
2022-10-05T18:43:11.854Z,98054.56
2022-10-05T18:46:03.773Z,98058.22
2022-10-05T18:48:38.826Z,98060.03
2022-10-05T18:51:12.232Z,98058.91
2022-10-05T18:53:49.577Z,98056.91
2022-10-05T18:56:38.496Z,98058.78
2022-10-05T18:59:05.995Z,98055.75
2022-10-05T19:01:56.472Z,98069.50
2022-10-05T19:04:47.472Z,98065.50
2022-10-05T19:07:38.461Z,98073.50
2022-10-05T19:10:25.636Z,98072.81
2022-10-05T19:12:59.054Z,98076.50
2022-10-05T19:15:49.177Z,98071.38
2022-10-05T19:18:42.281Z,98066.44
2022-10-05T19:21:37.935Z,98075.09
2022-10-05T19:24:18.944Z,98083.31
2022-10-05T19:27:07.456Z,98076.00
2022-10-05T19:29:40.935Z,98075.50
2022-10-05T19:32:34.156Z,98077.66
2022-10-05T19:35:20.274Z,98090.78
2022-10-05T19:37:50.676Z,98093.56
2022-10-05T19:40:21.001Z,98098.66
2022-10-05T19:43:03.624Z,98106.88
2022-10-05T19:45:43.471Z,98113.53
2022-10-05T19:48:36.431Z,98107.19
2022-10-05T19:51:12.795Z,98103.47
2022-10-05T19:53:47.207Z,98098.13
2022-10-05T19:56:26.515Z,98102.31
2022-10-05T19:58:56.634Z,98105.66
2022-10-05T20:01:36.787Z,98102.25
2022-10-05T20:04:05.465Z,98102.19
2022-10-05T20:06:33.686Z,98097.13
2022-10-05T20:09:19.403Z,98104.53
2022-10-05T20:11:51.787Z,98099.50
2022-10-05T20:14:31.365Z,98101.28
2022-10-05T20:17:34.221Z,98093.63
2022-10-05T20:20:25.658Z,98098.69
2022-10-05T20:22:53.111Z,98100.06
2022-10-05T20:25:20.511Z,98096.09
2022-10-05T20:27:55.253Z,98099.75
2022-10-05T20:30:28.096Z,98105.25
2022-10-05T20:32:58.238Z,98111.44
2022-10-05T20:35:29.625Z,98123.38
2022-10-05T20:38:00.278Z,98121.72
2022-10-05T20:40:29.338Z,98123.72
2022-10-05T20:42:57.292Z,98128.00
2022-10-05T20:45:25.010Z,98131.63
2022-10-05T20:47:52.603Z,98140.31
2022-10-05T20:50:23.014Z,98143.94
2022-10-05T20:52:50.463Z,98143.09
2022-10-05T20:55:17.967Z,98143.84
2022-10-05T20:57:46.316Z,98141.13
2022-10-05T21:00:14.040Z,98154.84
2022-10-05T21:02:41.535Z,98150.47
2022-10-05T21:05:09.808Z,98155.69
2022-10-05T21:07:37.381Z,98147.19
2022-10-05T21:10:05.298Z,98156.91
2022-10-05T21:12:34.101Z,98154.59
2022-10-05T21:15:04.810Z,98157.06
2022-10-05T21:17:35.209Z,98152.56
2022-10-05T21:20:02.806Z,98159.16
2022-10-05T21:22:30.245Z,98155.81
2022-10-05T21:24:58.535Z,98157.44
2022-10-05T21:27:26.044Z,98159.31
2022-10-05T21:29:53.583Z,98159.69
2022-10-05T21:32:21.122Z,98157.34
2022-10-05T21:34:48.525Z,98160.69
2022-10-05T21:37:16.054Z,98164.47
2022-10-05T21:39:43.724Z,98168.25
2022-10-05T21:42:11.345Z,98174.97
2022-10-05T21:44:38.820Z,98168.75
2022-10-05T21:47:07.074Z,98170.91
2022-10-05T21:49:36.184Z,98171.13
2022-10-05T21:52:05.445Z,98172.22
2022-10-05T21:54:34.069Z,98172.25
2022-10-05T21:57:01.881Z,98166.59
2022-10-05T21:59:33.944Z,98172.22
2022-10-05T22:02:01.452Z,98177.66
2022-10-05T22:04:29.063Z,98180.59
2022-10-05T22:06:56.867Z,98179.53
2022-10-05T22:09:24.482Z,98184.88
2022-10-05T22:11:52.260Z,98180.34
2022-10-05T22:14:19.804Z,98172.22
2022-10-05T22:16:47.693Z,98177.66
2022-10-05T22:19:18.813Z,98174.69
2022-10-05T22:21:46.692Z,98177.66
2022-10-05T22:24:14.153Z,98168.25
2022-10-05T22:26:46.103Z,98164.53
2022-10-05T22:29:15.939Z,98171.03
2022-10-05T22:31:45.440Z,98175.16
2022-10-05T22:34:13.872Z,98176.81
2022-10-05T22:36:41.942Z,98174.13
2022-10-05T22:39:09.443Z,98187.63
2022-10-05T22:41:36.931Z,98190.88
2022-10-05T22:44:04.730Z,98194.34
2022-10-05T22:46:32.618Z,98185.13
2022-10-05T22:49:00.180Z,98194.53
2022-10-05T22:51:27.732Z,98206.69
2022-10-05T22:53:55.183Z,98196.63
2022-10-05T22:56:22.831Z,98204.16
2022-10-05T22:58:51.173Z,98208.94
2022-10-05T23:01:20.493Z,98218.03
2022-10-05T23:03:48.372Z,98219.94
2022-10-05T23:06:20.674Z,98231.28
2022-10-05T23:08:48.382Z,98237.47
2022-10-05T23:11:19.064Z,98243.13
2022-10-05T23:13:46.556Z,98244.72
2022-10-05T23:16:20.305Z,98253.84
2022-10-05T23:18:49.473Z,98262.13
2022-10-05T23:21:18.662Z,98264.03
2022-10-05T23:23:53.364Z,98270.16
2022-10-05T23:26:25.303Z,98268.97
2022-10-05T23:28:53.062Z,98279.63
2022-10-05T23:31:23.422Z,98285.03
2022-10-05T23:33:51.784Z,98289.03
2022-10-05T23:36:25.642Z,98288.72
2022-10-05T23:38:53.362Z,98301.06
2022-10-05T23:41:21.372Z,98304.56
2022-10-05T23:43:49.033Z,98298.38
2022-10-05T23:46:17.824Z,98308.31
2022-10-05T23:48:45.423Z,98302.13
2022-10-05T23:51:14.543Z,98314.69
2022-10-05T23:53:42.072Z,98317.34
2022-10-05T23:56:09.529Z,98317.56
2022-10-05T23:58:37.221Z,98317.19
